| time (UTC) | temp C | wind direction | speed KPH | gust KPH | rain 1hr cm | rain 24hr cm | rain mn cm | humidity % | barometer mb |
| 20260507010704 | 14 | 151 | 1.6 | 4.8 | 0.00 | 0.38 | 0.38 | 95 | 1006.5 |
| 20260507005703 | 14 | 190 | 3.2 | 4.8 | 0.00 | 0.38 | 0.38 | 95 | 1006.6 |
| 20260507005204 | 14 | 166 | 3.2 | 14.5 | 0.00 | 0.38 | 0.38 | 95 | 1006.6 |
| 20260507004704 | 14 | 200 | 3.2 | 4.8 | 0.00 | 0.38 | 0.38 | 95 | 1006.5 |
| 20260507004204 | 14 | 225 | 1.6 | 4.8 | 0.00 | 0.38 | 0.38 | 95 | 1006.5 |
| 20260507003203 | 14 | 179 | 1.6 | 4.8 | 0.00 | 0.38 | 0.38 | 95 | 1006.3 |
| 20260507002703 | 14 | 163 | 3.2 | 4.8 | 0.00 | 0.38 | 0.38 | 95 | 1006.3 |
| 20260507002204 | 14 | 195 | 1.6 | 3.2 | 0.00 | 0.38 | 0.38 | 95 | 1006.4 |
| 20260507001206 | 14 | 169 | 3.2 | 3.2 | 0.00 | 0.38 | 0.38 | 95 | 1006.6 |
| 20260507000705 | 14 | 156 | 3.2 | 4.8 | 0.00 | 0.38 | 0.38 | 95 | 1006.6 |
| 20260507000205 | 14 | 174 | 1.6 | 4.8 | 0.00 | 0.38 | 0.38 | 95 | 1006.7 |
| 20260506235705 | 14 | 163 | 1.6 | 4.8 | 0.00 | 0.38 | 0.38 | 95 | 1006.7 |
| 20260506234205 | 14 | 188 | 1.6 | 4.8 | 0.00 | 0.38 | 0.38 | 95 | 1006.5 |
| 20260506233704 | 14 | 198 | 3.2 | 4.8 | 0.00 | 0.38 | 0.38 | 95 | 1006.4 |
| 20260506233204 | 14 | 162 | 3.2 | 8.0 | 0.00 | 0.38 | 0.38 | 95 | 1006.5 |
| 20260506232705 | 14 | 164 | 3.2 | 4.8 | 0.00 | 0.38 | 0.38 | 95 | 1006.4 |
| 20260506231705 | 14 | 166 | 3.2 | 4.8 | 0.00 | 0.38 | 0.38 | 95 | 1006.3 |
| 20260506231204 | 14 | 165 | 3.2 | 4.8 | 0.00 | 0.38 | 0.38 | 95 | 1006.3 |
| 20260506230706 | 14 | 174 | 3.2 | 4.8 | 0.00 | 0.38 | 0.38 | 95 | 1006.3 |
| 20260506225704 | 14 | 180 | 1.6 | 4.8 | 0.00 | 0.38 | 0.38 | 95 | 1006.2 |
| 20260506225204 | 14 | 168 | 1.6 | 3.2 | 0.00 | 0.38 | 0.38 | 95 | 1006.1 |
| 20260506224704 | 14 | 153 | 1.6 | 3.2 | 0.00 | 0.38 | 0.38 | 95 | 1006.1 |
| 20260506224205 | 14 | 216 | 1.6 | 4.8 | 0.00 | 0.38 | 0.38 | 95 | 1006.2 |
| 20260506223704 | 14 | 181 | 1.6 | 8.0 | 0.00 | 0.38 | 0.38 | 95 | 1006.1 |
| 20260506223204 | 14 | 230 | 3.2 | 8.0 | 0.00 | 0.38 | 0.38 | 95 | 1006.1 |
| 20260506222704 | 14 | 174 | 1.6 | 4.8 | 0.00 | 0.38 | 0.38 | 95 | 1006.1 |
| 20260506222204 | 14 | 153 | 3.2 | 8.0 | 0.00 | 0.38 | 0.38 | 95 | 1006.0 |
| 20260506221705 | 14 | 176 | 3.2 | 4.8 | 0.00 | 0.38 | 0.38 | 95 | 1006.0 |
| 20260506220704 | 14 | 172 | 1.6 | 3.2 | 0.00 | 0.38 | 0.38 | 95 | 1006.1 |
| 20260506220204 | 14 | 210 | 1.6 | 3.2 | 0.00 | 0.38 | 0.38 | 95 | 1006.2 |
| 20260506215704 | 15 | 189 | 3.2 | 4.8 | 0.00 | 0.38 | 0.38 | 95 | 1006.2 |
| 20260506215204 | 15 | 163 | 1.6 | 3.2 | 0.00 | 0.38 | 0.38 | 95 | 1006.1 |
| 20260506214705 | 15 | 187 | 1.6 | 4.8 | 0.00 | 0.38 | 0.38 | 95 | 1006.0 |
| 20260506214204 | 15 | 139 | 3.2 | 4.8 | 0.03 | 0.38 | 0.38 | 94 | 1005.9 |
| 20260506213704 | 15 | 168 | 1.6 | 3.2 | 0.03 | 0.38 | 0.38 | 94 | 1006.0 |
| 20260506213204 | 15 | 202 | 0.0 | 4.8 | 0.03 | 0.38 | 0.38 | 94 | 1006.1 |
| 20260506212704 | 15 | 212 | 3.2 | 4.8 | 0.05 | 0.38 | 0.38 | 94 | 1006.1 |
| 20260506212205 | 15 | 151 | 1.6 | 4.8 | 0.08 | 0.38 | 0.38 | 95 | 1006.2 |
| 20260506211705 | 15 | 156 | 3.2 | 4.8 | 0.10 | 0.38 | 0.38 | 95 | 1006.2 |
| 20260506211204 | 15 | 186 | 1.6 | 4.8 | 0.13 | 0.38 | 0.38 | 94 | 1006.2 |
| 20260506210205 | 15 | 147 | 3.2 | 4.8 | 0.13 | 0.38 | 0.38 | 94 | 1006.1 |
| 20260506205704 | 15 | 161 | 1.6 | 3.2 | 0.13 | 0.38 | 0.38 | 94 | 1006.3 |
| 20260506205205 | 15 | 147 | 1.6 | 3.2 | 0.13 | 0.38 | 0.38 | 94 | 1006.3 |
| 20260506204204 | 15 | 169 | 1.6 | 3.2 | 0.10 | 0.36 | 0.36 | 94 | 1006.5 |
| 20260506203705 | 15 | 176 | 1.6 | 3.2 | 0.10 | 0.36 | 0.36 | 94 | 1006.5 |
| 20260506203204 | 15 | 228 | 1.6 | 4.8 | 0.10 | 0.36 | 0.36 | 94 | 1006.5 |
| 20260506202704 | 15 | 198 | 3.2 | 12.9 | 0.08 | 0.33 | 0.33 | 94 | 1006.4 |
| 20260506201704 | 15 | 146 | 3.2 | 4.8 | 0.03 | 0.28 | 0.28 | 94 | 1006.6 |
| 20260506201204 | 15 | 163 | 1.6 | 4.8 | 0.00 | 0.25 | 0.25 | 94 | 1006.6 |
| 20260506200705 | 15 | 203 | 1.6 | 4.8 | 0.00 | 0.25 | 0.25 | 94 | 1006.6 |
| 20260506200205 | 15 | 147 | 1.6 | 8.0 | 0.03 | 0.25 | 0.25 | 94 | 1006.5 |
| 20260506195204 | 15 | 178 | 3.2 | 4.8 | 0.03 | 0.25 | 0.25 | 94 | 1006.7 |
| 20260506194204 | 15 | 143 | 3.2 | 4.8 | 0.03 | 0.25 | 0.25 | 94 | 1006.8 |
| 20260506193705 | 15 | 174 | 3.2 | 4.8 | 0.03 | 0.25 | 0.25 | 93 | 1006.8 |
| 20260506193205 | 15 | 161 | 3.2 | 4.8 | 0.05 | 0.25 | 0.25 | 93 | 1006.8 |
| 20260506192705 | 15 | 166 | 3.2 | 12.9 | 0.05 | 0.25 | 0.25 | 93 | 1006.9 |
| 20260506192204 | 15 | 154 | 3.2 | 8.0 | 0.08 | 0.25 | 0.25 | 93 | 1007.0 |
| 20260506191704 | 15 | 190 | 3.2 | 9.7 | 0.08 | 0.25 | 0.25 | 93 | 1007.0 |
| 20260506191205 | 15 | 166 | 4.8 | 4.8 | 0.10 | 0.25 | 0.25 | 93 | 1007.0 |
| 20260506190704 | 15 | 175 | 3.2 | 8.0 | 0.10 | 0.25 | 0.25 | 93 | 1007.0 |
| 20260506190205 | 15 | 158 | 3.2 | 9.7 | 0.08 | 0.23 | 0.23 | 93 | 1007.0 |
| 20260506185705 | 15 | 153 | 3.2 | 4.8 | 0.10 | 0.23 | 0.23 | 93 | 1007.2 |
| 20260506185205 | 15 | 145 | 3.2 | 4.8 | 0.10 | 0.23 | 0.23 | 93 | 1007.2 |
| 20260506184704 | 15 | 200 | 3.2 | 4.8 | 0.10 | 0.23 | 0.23 | 93 | 1007.2 |
| 20260506184204 | 15 | 154 | 3.2 | 8.0 | 0.13 | 0.23 | 0.23 | 93 | 1007.4 |
| 20260506183704 | 15 | 172 | 4.8 | 8.0 | 0.13 | 0.23 | 0.23 | 93 | 1007.6 |
| 20260506183204 | 15 | 195 | 1.6 | 3.2 | 0.13 | 0.20 | 0.20 | 92 | 1007.7 |
| 20260506182704 | 15 | 157 | 3.2 | 4.8 | 0.13 | 0.20 | 0.20 | 92 | 1007.6 |
| 20260506182204 | 15 | 149 | 3.2 | 9.7 | 0.10 | 0.18 | 0.18 | 92 | 1007.6 |
| 20260506181705 | 15 | 139 | 4.8 | 9.7 | 0.10 | 0.18 | 0.18 | 92 | 1007.7 |
| 20260506181204 | 15 | 155 | 3.2 | 8.0 | 0.08 | 0.15 | 0.15 | 91 | 1007.6 |
| 20260506180704 | 15 | 142 | 3.2 | 8.0 | 0.10 | 0.15 | 0.15 | 91 | 1007.2 |
| 20260506180204 | 15 | 141 | 3.2 | 9.7 | 0.10 | 0.15 | 0.15 | 91 | 1007.4 |
| 20260506175704 | 15 | 155 | 1.6 | 8.0 | 0.13 | 0.13 | 0.13 | 91 | 1007.5 |
| 20260506175204 | 15 | 148 | 1.6 | 4.8 | 0.13 | 0.13 | 0.13 | 91 | 1007.5 |
| 20260506174705 | 15 | 150 | 1.6 | 4.8 | 0.13 | 0.13 | 0.13 | 90 | 1007.6 |
| 20260506174204 | 15 | 150 | 3.2 | 4.8 | 0.10 | 0.10 | 0.10 | 90 | 1007.8 |
| 20260506173704 | 15 | 145 | 3.2 | 4.8 | 0.10 | 0.10 | 0.10 | 89 | 1007.9 |
| 20260506173205 | 16 | 145 | 3.2 | 4.8 | 0.08 | 0.08 | 0.08 | 89 | 1008.1 |
| 20260506172704 | 16 | 163 | 3.2 | 4.8 | 0.08 | 0.08 | 0.08 | 88 | 1008.3 |
| 20260506172204 | 16 | 160 | 1.6 | 4.8 | 0.08 | 0.08 | 0.08 | 88 | 1008.5 |
| 20260506171704 | 16 | 166 | 1.6 | 4.8 | 0.08 | 0.08 | 0.08 | 87 | 1008.6 |
| 20260506171204 | 16 | 143 | 1.6 | 4.8 | 0.08 | 0.08 | 0.08 | 86 | 1008.6 |
| 20260506170705 | 16 | 163 | 3.2 | 8.0 | 0.05 | 0.05 | 0.05 | 85 | 1008.7 |
| 20260506170205 | 16 | 192 | 3.2 | 4.8 | 0.05 | 0.05 | 0.05 | 84 | 1008.6 |
| 20260506165704 | 17 | 167 | 3.2 | 9.7 | 0.00 | 0.00 | 0.00 | 82 | 1008.7 |
| 20260506164705 | 17 | 159 | 1.6 | 4.8 | 0.00 | 0.00 | 0.00 | 80 | 1008.8 |
| 20260506163704 | 17 | 189 | 4.8 | 9.7 | 0.00 | 0.00 | 0.00 | 79 | 1008.6 |
| 20260506163205 | 17 | 173 | 3.2 | 14.5 | 0.00 | 0.00 | 0.00 | 79 | 1008.6 |
| 20260506162704 | 18 | 152 | 4.8 | 16.1 | 0.00 | 0.00 | 0.00 | 79 | 1008.6 |
| 20260506162204 | 18 | 201 | 4.8 | 14.5 | 0.00 | 0.00 | 0.00 | 77 | 1008.5 |
| 20260506161704 | 18 | 192 | 4.8 | 12.9 | 0.00 | 0.00 | 0.00 | 77 | 1008.4 |
| 20260506160705 | 18 | 175 | 8.0 | 19.3 | 0.00 | 0.00 | 0.00 | 76 | 1008.7 |
| 20260506155704 | 18 | 209 | 4.8 | 14.5 | 0.00 | 0.00 | 0.00 | 76 | 1008.8 |
| 20260506155204 | 18 | 203 | 8.0 | 16.1 | 0.00 | 0.00 | 0.00 | 75 | 1009.0 |
| 20260506154705 | 18 | 214 | 3.2 | 14.5 | 0.00 | 0.00 | 0.00 | 75 | 1009.0 |
| 20260506154204 | 18 | 164 | 6.4 | 16.1 | 0.00 | 0.00 | 0.00 | 75 | 1009.1 |
| 20260506153705 | 18 | 193 | 8.0 | 22.5 | 0.00 | 0.00 | 0.00 | 75 | 1009.2 |
| 20260506153204 | 18 | 221 | 8.0 | 14.5 | 0.00 | 0.00 | 0.00 | 74 | 1009.0 |
| 20260506152705 | 18 | 216 | 6.4 | 16.1 | 0.00 | 0.00 | 0.00 | 74 | 1009.0 |
| 20260506152205 | 18 | 195 | 9.7 | 19.3 | 0.00 | 0.00 | 0.00 | 73 | 1008.9 |
| 20260506151204 | 18 | 175 | 3.2 | 4.8 | 0.00 | 0.00 | 0.00 | 74 | 1008.8 |
| 20260506150704 | 18 | 194 | 6.4 | 19.3 | 0.00 | 0.00 | 0.00 | 74 | 1008.9 |
| 20260506150204 | 18 | 159 | 4.8 | 14.5 | 0.00 | 0.00 | 0.00 | 74 | 1008.9 |
| 20260506145704 | 18 | 190 | 8.0 | 12.9 | 0.00 | 0.00 | 0.00 | 73 | 1008.9 |
| 20260506145205 | 18 | 153 | 8.0 | 16.1 | 0.00 | 0.00 | 0.00 | 73 | 1008.9 |
| 20260506144704 | 18 | 186 | 4.8 | 14.5 | 0.00 | 0.00 | 0.00 | 74 | 1009.0 |
| 20260506143705 | 18 | 191 | 8.0 | 19.3 | 0.00 | 0.00 | 0.00 | 74 | 1009.0 |
| 20260506143205 | 18 | 209 | 8.0 | 16.1 | 0.00 | 0.00 | 0.00 | 74 | 1009.1 |
| 20260506142704 | 18 | 171 | 9.7 | 19.3 | 0.00 | 0.00 | 0.00 | 74 | 1009.1 |
| 20260506142204 | 18 | 160 | 9.7 | 16.1 | 0.00 | 0.00 | 0.00 | 74 | 1009.1 |
| 20260506141704 | 18 | 170 | 4.8 | 14.5 | 0.00 | 0.00 | 0.00 | 75 | 1009.1 |
| 20260506141204 | 18 | 153 | 6.4 | 19.3 | 0.00 | 0.00 | 0.00 | 76 | 1009.2 |
| 20260506140704 | 18 | 196 | 8.0 | 19.3 | 0.00 | 0.00 | 0.00 | 76 | 1009.2 |
| 20260506135204 | 17 | 182 | 4.8 | 12.9 | 0.00 | 0.00 | 0.00 | 78 | 1009.3 |
| 20260506134705 | 17 | 172 | 4.8 | 14.5 | 0.00 | 0.00 | 0.00 | 78 | 1009.0 |
| 20260506134204 | 17 | 162 | 4.8 | 9.7 | 0.00 | 0.00 | 0.00 | 78 | 1009.1 |
| 20260506133704 | 17 | 171 | 4.8 | 19.3 | 0.00 | 0.00 | 0.00 | 78 | 1009.0 |
| 20260506133204 | 17 | 170 | 4.8 | 14.5 | 0.00 | 0.00 | 0.00 | 79 | 1008.9 |
| 20260506131704 | 17 | 166 | 4.8 | 12.9 | 0.00 | 0.00 | 0.00 | 81 | 1009.3 |
| 20260506130704 | 16 | 194 | 3.2 | 8.0 | 0.00 | 0.00 | 0.00 | 82 | 1009.3 |
| 20260506130204 | 16 | 167 | 4.8 | 9.7 | 0.00 | 0.00 | 0.00 | 82 | 1009.1 |
| 20260506125704 | 16 | 178 | 6.4 | 14.5 | 0.00 | 0.00 | 0.00 | 83 | 1009.2 |
| 20260506125204 | 16 | 168 | 4.8 | 9.7 | 0.00 | 0.00 | 0.00 | 83 | 1009.4 |
| 20260506124704 | 16 | 188 | 3.2 | 8.0 | 0.00 | 0.00 | 0.00 | 83 | 1009.5 |
| 20260506124204 | 16 | 154 | 4.8 | 12.9 | 0.00 | 0.00 | 0.00 | 83 | 1009.7 |
| 20260506123704 | 16 | 159 | 3.2 | 8.0 | 0.00 | 0.00 | 0.00 | 84 | 1009.8 |
| 20260506123204 | 16 | 219 | 3.2 | 4.8 | 0.00 | 0.00 | 0.00 | 84 | 1009.9 |
| 20260506122704 | 16 | 203 | 1.6 | 8.0 | 0.00 | 0.00 | 0.00 | 84 | 1009.8 |
| 20260506122204 | 16 | 153 | 4.8 | 9.7 | 0.00 | 0.00 | 0.00 | 85 | 1009.8 |
| 20260506121204 | 15 | 215 | 3.2 | 8.0 | 0.00 | 0.00 | 0.00 | 86 | 1009.8 |
| 20260506120705 | 15 | 235 | 8.0 | 16.1 | 0.00 | 0.00 | 0.00 | 86 | 1009.7 |
| 20260506115704 | 15 | 215 | 4.8 | 14.5 | 0.00 | 0.00 | 0.00 | 86 | 1009.7 |
| 20260506115205 | 15 | 204 | 3.2 | 9.7 | 0.00 | 0.00 | 0.00 | 86 | 1009.7 |
| 20260506114704 | 15 | 186 | 3.2 | 11.3 | 0.00 | 0.00 | 0.00 | 87 | 1009.7 |
| 20260506114205 | 15 | 238 | 4.8 | 14.5 | 0.00 | 0.00 | 0.00 | 87 | 1009.8 |
| 20260506113704 | 15 | 180 | 4.8 | 4.8 | 0.00 | 0.00 | 0.00 | 87 | 1009.8 |
| 20260506113204 | 15 | 218 | 3.2 | 14.5 | 0.00 | 0.00 | 0.00 | 87 | 1009.7 |
| 20260506112704 | 15 | 214 | 1.6 | 4.8 | 0.00 | 0.00 | 0.00 | 87 | 1009.7 |
| 20260506112205 | 15 | 168 | 3.2 | 8.0 | 0.00 | 0.00 | 0.00 | 88 | 1009.6 |
| 20260506111704 | 15 | 177 | 4.8 | 9.7 | 0.00 | 0.00 | 0.00 | 88 | 1009.7 |
| 20260506111204 | 14 | 199 | 4.8 | 12.9 | 0.00 | 0.00 | 0.00 | 88 | 1010.0 |
| 20260506110704 | 14 | 201 | 4.8 | 9.7 | 0.00 | 0.00 | 0.00 | 88 | 1010.0 |
| 20260506110204 | 14 | 219 | 4.8 | 14.5 | 0.00 | 0.00 | 0.00 | 89 | 1010.0 |
| 20260506105704 | 14 | 150 | 1.6 | 4.8 | 0.00 | 0.00 | 0.00 | 89 | 1009.9 |
| 20260506105205 | 14 | 165 | 1.6 | 3.2 | 0.00 | 0.00 | 0.00 | 89 | 1009.9 |
| 20260506104704 | 14 | 198 | 1.6 | 4.8 | 0.00 | 0.00 | 0.00 | 88 | 1009.8 |
| 20260506104204 | 14 | 207 | 1.6 | 4.8 | 0.00 | 0.00 | 0.00 | 89 | 1009.9 |
| 20260506103205 | 13 | 195 | 0.0 | 3.2 | 0.00 | 0.00 | 0.00 | 89 | 1009.8 |
| 20260506102705 | 13 | 148 | 3.2 | 4.8 | 0.00 | 0.00 | 0.00 | 88 | 1009.8 |
| 20260506102204 | 13 | 178 | 1.6 | 3.2 | 0.00 | 0.00 | 0.00 | 88 | 1009.6 |
| 20260506101704 | 13 | 183 | 1.6 | 4.8 | 0.00 | 0.00 | 0.00 | 88 | 1009.7 |
| 20260506101204 | 13 | 173 | 1.6 | 8.0 | 0.00 | 0.00 | 0.00 | 88 | 1009.7 |
| 20260506100705 | 13 | 174 | 0.0 | 3.2 | 0.00 | 0.00 | 0.00 | 88 | 1009.7 |
| 20260506100205 | 13 | 170 | 3.2 | 4.8 | 0.00 | 0.00 | 0.00 | 88 | 1009.6 |
| 20260506095705 | 13 | 167 | 1.6 | 4.8 | 0.00 | 0.00 | 0.00 | 88 | 1009.6 |
| 20260506094704 | 14 | 203 | 3.2 | 8.0 | 0.00 | 0.00 | 0.00 | 87 | 1009.6 |
| 20260506093705 | 14 | 157 | 1.6 | 4.8 | 0.00 | 0.00 | 0.00 | 87 | 1009.6 |
| 20260506093205 | 14 | 182 | 3.2 | 4.8 | 0.00 | 0.00 | 0.00 | 87 | 1009.5 |
| 20260506092705 | 14 | 165 | 1.6 | 3.2 | 0.00 | 0.00 | 0.00 | 87 | 1009.6 |
| 20260506092204 | 14 | 166 | 1.6 | 4.8 | 0.00 | 0.00 | 0.00 | 87 | 1009.7 |
| 20260506091704 | 14 | 160 | 3.2 | 4.8 | 0.00 | 0.00 | 0.00 | 87 | 1009.6 |
| 20260506090704 | 14 | 159 | 0.0 | 3.2 | 0.00 | 0.00 | 0.00 | 86 | 1009.7 |
| 20260506090204 | 14 | 147 | 1.6 | 3.2 | 0.00 | 0.00 | 0.00 | 86 | 1009.8 |
| 20260506085704 | 14 | 139 | 0.0 | 3.2 | 0.00 | 0.00 | 0.00 | 86 | 1009.8 |
| 20260506085204 | 14 | 162 | 1.6 | 4.8 | 0.00 | 0.00 | 0.00 | 86 | 1009.7 |
| 20260506084705 | 14 | 167 | 1.6 | 8.0 | 0.00 | 0.00 | 0.00 | 86 | 1009.7 |
| 20260506084204 | 14 | 185 | 3.2 | 4.8 | 0.00 | 0.00 | 0.00 | 86 | 1009.8 |
| 20260506083704 | 14 | 169 | 3.2 | 4.8 | 0.00 | 0.00 | 0.00 | 85 | 1009.8 |
| 20260506083204 | 14 | 196 | 1.6 | 4.8 | 0.00 | 0.00 | 0.00 | 85 | 1009.9 |
| 20260506082704 | 14 | 183 | 0.0 | 3.2 | 0.00 | 0.00 | 0.00 | 85 | 1009.8 |
| 20260506081704 | 14 | 164 | 3.2 | 4.8 | 0.00 | 0.00 | 0.00 | 85 | 1009.7 |
| 20260506081204 | 15 | 162 | 1.6 | 4.8 | 0.00 | 0.00 | 0.00 | 85 | 1009.6 |
| 20260506080704 | 15 | 163 | 1.6 | 4.8 | 0.00 | 0.00 | 0.00 | 85 | 1009.6 |
| 20260506080204 | 15 | 194 | 1.6 | 4.8 | 0.00 | 0.00 | 0.00 | 85 | 1009.8 |
| 20260506073204 | 15 | 175 | 1.6 | 3.2 | 0.00 | 0.00 | 0.00 | 83 | 1009.7 |
| 20260506072705 | 15 | 154 | 1.6 | 4.8 | 0.00 | 0.00 | 0.00 | 83 | 1009.7 |
| 20260506072204 | 15 | 167 | 3.2 | 4.8 | 0.00 | 0.00 | 0.00 | 83 | 1009.8 |
| 20260506071704 | 15 | 153 | 3.2 | 8.0 | 0.00 | 0.00 | 0.00 | 83 | 1009.8 |
| 20260506071205 | 15 | 168 | 3.2 | 14.5 | 0.00 | 0.00 | 0.00 | 82 | 1009.8 |
| 20260506070704 | 15 | 152 | 3.2 | 4.8 | 0.00 | 0.00 | 0.00 | 82 | 1009.8 |
| 20260506070204 | 15 | 150 | 1.6 | 4.8 | 0.00 | 0.00 | 0.00 | 82 | 1009.8 |
| 20260506062204 | 15 | 181 | 1.6 | 3.2 | 0.00 | 0.00 | 0.00 | 81 | 1009.6 |
| 20260506061705 | 15 | 152 | 1.6 | 3.2 | 0.00 | 0.00 | 0.00 | 80 | 1009.6 |
| 20260506061205 | 15 | 162 | 1.6 | 4.8 | 0.00 | 0.00 | 0.00 | 80 | 1009.6 |
| 20260506060704 | 16 | 148 | 1.6 | 3.2 | 0.00 | 0.00 | 0.00 | 80 | 1009.6 |
| 20260506060204 | 16 | 168 | 0.0 | 3.2 | 0.00 | 0.00 | 0.00 | 80 | 1009.6 |
| 20260506051205 | 16 | 180 | 4.8 | 9.7 | 0.00 | 0.00 | 0.00 | 78 | 1010.0 |
| 20260506050704 | 16 | 174 | 1.6 | 4.8 | 0.00 | 0.00 | 0.00 | 78 | 1010.0 |
| 20260506050204 | 16 | 158 | 4.8 | 9.7 | 0.00 | 0.00 | 0.00 | 78 | 1009.9 |
| 20260506044704 | 16 | 173 | 3.2 | 9.7 | 0.00 | 0.00 | 0.00 | 77 | 1010.0 |
| 20260506044205 | 16 | 168 | 3.2 | 11.3 | 0.00 | 0.00 | 0.00 | 76 | 1010.1 |
| 20260506043705 | 17 | 159 | 4.8 | 11.3 | 0.00 | 0.00 | 0.00 | 76 | 1010.0 |
| 20260506043205 | 17 | 198 | 4.8 | 14.5 | 0.00 | 0.00 | 0.00 | 76 | 1010.0 |
| 20260506042204 | 17 | 206 | 4.8 | 9.7 | 0.00 | 0.00 | 0.00 | 75 | 1010.0 |
| 20260506041204 | 17 | 163 | 3.2 | 8.0 | 0.00 | 0.00 | 0.00 | 74 | 1009.9 |
| 20260506040707 | 17 | 192 | 3.2 | 14.5 | 0.00 | 0.00 | 0.00 | 74 | 1010.0 |
| 20260506040205 | 17 | 165 | 4.8 | 11.3 | 0.00 | 0.00 | 0.00 | 73 | 1009.9 |
| 20260506035705 | 17 | 163 | 6.4 | 19.3 | 0.00 | 0.00 | 0.00 | 73 | 1009.9 |
| 20260506035204 | 17 | 217 | 3.2 | 14.5 | 0.00 | 0.00 | 0.00 | 72 | 1010.0 |
| 20260506034705 | 17 | 197 | 4.8 | 9.7 | 0.00 | 0.00 | 0.00 | 72 | 1009.8 |
| 20260506034204 | 17 | 170 | 3.2 | 11.3 | 0.00 | 0.00 | 0.00 | 71 | 1009.9 |
| 20260506033204 | 17 | 221 | 6.4 | 20.9 | 0.00 | 0.00 | 0.00 | 71 | 1010.0 |
| 20260506032204 | 17 | 205 | 4.8 | 14.5 | 0.00 | 0.00 | 0.00 | 70 | 1010.0 |
| 20260506031704 | 17 | 180 | 4.8 | 12.9 | 0.00 | 0.00 | 0.00 | 70 | 1009.8 |
| 20260506030704 | 17 | 178 | 4.8 | 16.1 | 0.00 | 0.00 | 0.00 | 70 | 1009.9 |
| 20260506025204 | 17 | 164 | 4.8 | 9.7 | 0.00 | 0.00 | 0.00 | 70 | 1009.9 |
| 20260506024704 | 17 | 227 | 4.8 | 11.3 | 0.00 | 0.00 | 0.00 | 70 | 1009.8 |
| 20260506024205 | 17 | 165 | 1.6 | 4.8 | 0.00 | 0.00 | 0.00 | 70 | 1009.8 |
| 20260506023704 | 17 | 163 | 4.8 | 11.3 | 0.00 | 0.00 | 0.00 | 70 | 1009.8 |
| 20260506022704 | 17 | 213 | 4.8 | 12.9 | 0.00 | 0.00 | 0.00 | 70 | 1009.9 |
| 20260506022205 | 17 | 154 | 3.2 | 4.8 | 0.00 | 0.00 | 0.00 | 69 | 1009.8 |
| 20260506021704 | 17 | 175 | 1.6 | 3.2 | 0.00 | 0.00 | 0.00 | 69 | 1009.9 |
| 20260506021204 | 17 | 176 | 3.2 | 4.8 | 0.00 | 0.00 | 0.00 | 69 | 1009.8 |
| 20260506020705 | 17 | 161 | 3.2 | 4.8 | 0.00 | 0.00 | 0.00 | 68 | 1009.8 |
| 20260506015705 | 17 | 199 | 1.6 | 4.8 | 0.00 | 0.00 | 0.00 | 68 | 1009.8 |
| 20260506015205 | 17 | 168 | 1.6 | 4.8 | 0.00 | 0.00 | 0.00 | 68 | 1009.8 |
| 20260506014704 | 17 | 184 | 3.2 | 8.0 | 0.00 | 0.00 | 0.00 | 68 | 1009.8 |
| 20260506014205 | 17 | 168 | 3.2 | 4.8 | 0.00 | 0.00 | 0.00 | 67 | 1009.7 |
| 20260506013704 | 17 | 152 | 3.2 | 9.7 | 0.00 | 0.00 | 0.00 | 67 | 1009.6 |
| 20260506013204 | 17 | 202 | 3.2 | 14.5 | 0.00 | 0.00 | 0.00 | 67 | 1009.5 |
| 20260506012704 | 17 | 154 | 3.2 | 8.0 | 0.00 | 0.00 | 0.00 | 67 | 1009.5 |
| 20260506011704 | 18 | 211 | 4.8 | 12.9 | 0.00 | 0.00 | 0.00 | 66 | 1009.5 |